Time;durP1;ratioP1;P1;durP2;ratioP2;P2;SDS_P1;SDS_P2;PMS_P1;PMS_P2;Temp;Humidity;BMP_temperature;BMP_pressure;BME280_temperature;BME280_humidity;BME280_pressure;Samples;Min_cycle;Max_cycle;Signal;HPM_P1;HPM_P2
2021/07/02 00:01:38;;;;;;;21.83;6.97;;;;;;;20.81;48.88;101459.69;5060108;28;20032;-61
2021/07/02 00:04:04;;;;;;;11.73;6.35;;;;;;;20.79;48.72;101459.03;5058891;28;20084;-60
2021/07/02 00:06:29;;;;;;;8.63;4.95;;;;;;;20.80;48.65;101456.13;5055445;28;20021;-61
2021/07/02 00:08:55;;;;;;;13.75;5.18;;;;;;;20.81;48.83;101456.97;5055316;28;20024;-61
2021/07/02 00:11:20;;;;;;;17.85;6.50;;;;;;;20.80;48.56;101453.41;5054671;28;20386;-61
2021/07/02 00:13:45;;;;;;;10.73;4.85;;;;;;;20.83;48.75;101460.34;5055142;28;20025;-61
2021/07/02 00:16:11;;;;;;;12.75;6.03;;;;;;;20.84;48.38;101456.63;5037134;28;20033;-61
2021/07/02 00:18:36;;;;;;;11.65;5.72;;;;;;;20.86;49.32;101449.97;5059373;28;20039;-61
2021/07/02 00:21:02;;;;;;;15.98;7.72;;;;;;;20.88;48.71;101452.50;5054901;28;20024;-61
2021/07/02 00:23:27;;;;;;;14.73;6.85;;;;;;;20.89;48.93;101454.19;5055100;28;20044;-61
2021/07/02 00:25:52;;;;;;;9.30;5.40;;;;;;;20.88;49.29;101442.44;5054995;28;20516;-61
2021/07/02 00:28:18;;;;;;;13.38;7.18;;;;;;;20.94;49.18;101451.75;5054880;28;20441;-61
2021/07/02 00:30:43;;;;;;;10.73;5.10;;;;;;;20.96;49.42;101451.59;5054655;28;20036;-60
2021/07/02 00:33:08;;;;;;;13.50;5.97;;;;;;;20.96;48.93;101441.56;5054648;28;20104;-60
2021/07/02 00:35:34;;;;;;;12.95;6.32;;;;;;;20.97;48.75;101445.97;5054385;28;20025;-61
2021/07/02 00:38:00;;;;;;;13.63;7.15;;;;;;;21.00;49.27;101442.03;5054338;28;20049;-61
2021/07/02 00:40:25;;;;;;;16.17;5.90;;;;;;;21.03;49.25;101441.66;5037074;28;20075;-61
2021/07/02 00:42:50;;;;;;;16.58;6.65;;;;;;;21.05;48.98;101448.63;5054630;28;20082;-61
2021/07/02 00:45:16;;;;;;;13.57;7.05;;;;;;;21.09;48.93;101444.53;5054758;28;20036;-60
2021/07/02 00:47:41;;;;;;;10.40;6.05;;;;;;;21.13;49.27;101442.31;5054132;28;20496;-60
2021/07/02 00:50:07;;;;;;;16.70;6.28;;;;;;;21.13;49.63;101439.59;5036760;28;20031;-61
2021/07/02 00:52:33;;;;;;;16.63;6.60;;;;;;;21.18;49.25;101438.00;5054114;28;20028;-60
2021/07/02 00:54:58;;;;;;;16.73;7.05;;;;;;;21.21;49.49;101439.50;5055120;28;20035;-60
2021/07/02 00:57:24;;;;;;;13.75;6.28;;;;;;;21.21;49.41;101437.66;5054422;28;20047;-61
2021/07/02 00:59:50;;;;;;;18.48;7.47;;;;;;;21.22;48.96;101428.41;5036658;28;20377;-61
2021/07/02 01:02:16;;;;;;;15.35;6.90;;;;;;;21.28;48.98;101437.72;5054100;28;20028;-60
2021/07/02 01:04:42;;;;;;;15.68;6.78;;;;;;;21.27;49.33;101436.88;5054395;28;20033;-61
2021/07/02 01:07:08;;;;;;;14.98;7.07;;;;;;;21.25;49.41;101433.50;5037101;28;20354;-61
2021/07/02 01:09:33;;;;;;;22.00;7.25;;;;;;;21.24;50.00;101431.81;5052733;28;20032;-61
2021/07/02 01:11:59;;;;;;;16.17;6.78;;;;;;;21.23;48.85;101430.13;5054200;28;20033;-60
2021/07/02 01:14:25;;;;;;;15.65;7.20;;;;;;;21.22;49.65;101433.88;5053849;28;20037;-61
2021/07/02 01:16:50;;;;;;;19.45;7.45;;;;;;;21.21;49.91;101425.88;5036480;28;20121;-60
2021/07/02 01:19:16;;;;;;;15.77;7.45;;;;;;;21.20;50.09;101424.19;5054014;28;20029;-61
2021/07/02 01:21:42;;;;;;;18.50;7.00;;;;;;;21.18;49.19;101421.66;5054200;28;20071;-60
2021/07/02 01:24:07;;;;;;;13.85;7.03;;;;;;;21.17;49.72;101432.72;5054607;28;20101;-61
2021/07/02 01:26:33;;;;;;;15.98;6.57;;;;;;;21.15;49.47;101427.47;5054062;28;20056;-60
2021/07/02 01:28:59;;;;;;;13.13;6.22;;;;;;;21.14;49.36;101423.03;5053896;28;20366;-61
2021/07/02 01:31:24;;;;;;;17.35;6.13;;;;;;;21.08;49.45;101426.50;5053720;28;20025;-61
2021/07/02 01:33:50;;;;;;;10.32;5.75;;;;;;;21.10;49.01;101424.47;5053971;28;20029;-61
2021/07/02 01:36:20;;;;;;;12.77;6.70;;;;;;;21.08;49.32;101423.75;5054240;28;20429;-60
2021/07/02 01:38:46;;;;;;;14.70;6.75;;;;;;;21.06;49.82;101423.06;5054487;28;20029;-61
2021/07/02 01:41:11;;;;;;;18.30;7.07;;;;;;;21.04;49.18;101421.56;5036471;28;20143;-61
2021/07/02 01:43:37;;;;;;;18.63;7.10;;;;;;;21.02;48.87;101421.72;5054237;28;20100;-60
2021/07/02 01:46:02;;;;;;;15.88;6.28;;;;;;;21.01;49.41;101411.88;5054243;28;20466;-60
2021/07/02 01:48:28;;;;;;;13.82;7.32;;;;;;;21.01;49.50;101424.66;5035980;28;20363;-61
2021/07/02 01:50:54;;;;;;;17.33;7.97;;;;;;;20.99;49.36;101424.00;5054098;28;20159;-61
2021/07/02 01:53:19;;;;;;;18.50;7.25;;;;;;;20.96;49.04;101422.50;5053967;28;20028;-61
2021/07/02 01:55:44;;;;;;;13.77;6.30;;;;;;;20.96;49.31;101421.63;5053705;28;20055;-61
2021/07/02 01:58:10;;;;;;;15.57;6.45;;;;;;;20.91;49.33;101414.00;5052612;28;20060;-61
2021/07/02 02:00:35;;;;;;;15.70;7.88;;;;;;;20.92;49.41;101427.44;5052955;28;20362;-61
2021/07/02 02:03:00;;;;;;;16.35;5.45;;;;;;;20.89;49.07;101421.50;5053544;28;20111;-61
2021/07/02 02:05:26;;;;;;;11.15;6.35;;;;;;;20.85;49.08;101414.75;5054164;28;20466;-61
2021/07/02 02:07:51;;;;;;;11.45;6.15;;;;;;;20.81;49.09;101416.97;5053888;28;20025;-61
2021/07/02 02:10:17;;;;;;;13.15;5.70;;;;;;;20.78;48.71;101419.22;5055256;28;20029;-61
2021/07/02 02:12:42;;;;;;;18.25;7.05;;;;;;;20.69;48.93;101409.38;5057007;28;20049;-61
2021/07/02 02:15:08;;;;;;;15.05;7.18;;;;;;;20.67;49.24;101416.91;5038769;28;20054;-61
2021/07/02 02:17:34;;;;;;;17.85;6.57;;;;;;;20.65;49.40;101424.41;5056952;28;20087;-60
2021/07/02 02:19:59;;;;;;;12.25;6.15;;;;;;;20.60;49.62;101415.94;5057435;28;20021;-61
2021/07/02 02:22:25;;;;;;;15.50;6.00;;;;;;;20.58;49.12;101413.38;5056817;28;20023;-61
2021/07/02 02:24:50;;;;;;;11.82;5.85;;;;;;;20.57;49.39;101419.03;5057281;28;20355;-61
2021/07/02 02:27:16;;;;;;;14.70;6.25;;;;;;;20.55;49.60;101410.16;5057334;28;20484;-61
2021/07/02 02:29:41;;;;;;;13.90;7.25;;;;;;;20.54;49.25;101416.66;5056805;28;20029;-61
2021/07/02 02:32:07;;;;;;;10.80;5.82;;;;;;;20.51;49.14;101408.84;5056628;28;20070;-61
2021/07/02 02:34:32;;;;;;;18.60;8.27;;;;;;;20.49;49.24;101419.06;5056873;28;20027;-61
2021/07/02 02:36:58;;;;;;;16.27;6.47;;;;;;;20.46;49.65;101405.81;5054564;28;20129;-61
2021/07/02 02:39:23;;;;;;;17.35;6.28;;;;;;;20.42;49.69;101408.03;5056851;28;20032;-61
2021/07/02 02:41:49;;;;;;;13.68;6.53;;;;;;;20.40;49.07;101403.81;5057034;28;20044;-61
2021/07/02 02:44:14;;;;;;;20.88;6.85;;;;;;;20.41;48.76;101405.50;5056808;28;20025;-61
2021/07/02 02:46:39;;;;;;;14.00;6.20;;;;;;;20.40;48.92;101401.09;5038774;28;20386;-60
2021/07/02 02:49:05;;;;;;;20.80;7.65;;;;;;;20.36;49.27;101402.44;5056635;28;20074;-61
2021/07/02 02:51:30;;;;;;;16.00;6.03;;;;;;;20.35;49.16;101401.63;5056846;28;20103;-60
2021/07/02 02:53:56;;;;;;;22.40;7.68;;;;;;;20.37;49.38;101405.00;5056672;28;20021;-60
2021/07/02 02:56:21;;;;;;;17.60;7.40;;;;;;;20.37;49.14;101394.13;5056375;28;20029;-61
2021/07/02 02:58:47;;;;;;;17.83;7.13;;;;;;;20.35;49.38;101401.63;5056234;28;20025;-60
2021/07/02 03:01:12;;;;;;;17.95;8.35;;;;;;;20.40;49.87;101414.69;5054854;28;20470;-61
2021/07/02 03:03:38;;;;;;;20.00;6.85;;;;;;;20.42;49.89;101412.63;5056933;28;20025;-61
2021/07/02 03:06:03;;;;;;;15.07;7.72;;;;;;;20.40;49.48;101409.25;5056248;28;20075;-61
2021/07/02 03:08:29;;;;;;;16.30;6.70;;;;;;;20.42;49.31;101407.19;5056109;28;20021;-60
2021/07/02 03:10:54;;;;;;;14.07;6.88;;;;;;;20.41;49.05;101405.50;5056717;28;20040;-60
2021/07/02 03:13:19;;;;;;;19.73;6.47;;;;;;;20.40;49.26;101403.81;5056114;28;20489;-60
2021/07/02 03:15:45;;;;;;;17.40;6.75;;;;;;;20.41;49.19;101405.50;5054508;28;20079;-60
2021/07/02 03:18:10;;;;;;;16.70;7.40;;;;;;;20.43;49.80;101408.91;5038416;28;20021;-61
2021/07/02 03:20:35;;;;;;;20.20;6.22;;;;;;;20.40;49.72;101406.53;5054546;28;20107;-61
2021/07/02 03:23:01;;;;;;;11.10;5.93;;;;;;;20.41;49.12;101408.22;5038000;28;20378;-61
2021/07/02 03:25:26;;;;;;;15.60;6.20;;;;;;;20.38;49.49;101398.53;5055677;28;20470;-61
2021/07/02 03:27:52;;;;;;;16.25;6.80;;;;;;;20.45;49.53;101406.84;5055994;28;20427;-61
2021/07/02 03:30:17;;;;;;;18.33;6.47;;;;;;;20.44;49.60;101413.28;5055834;28;20021;-61
2021/07/02 03:32:43;;;;;;;15.60;6.30;;;;;;;20.40;49.69;101403.81;5055608;28;20359;-61
2021/07/02 03:35:09;;;;;;;14.95;6.43;;;;;;;20.43;49.36;101415.19;5056111;28;20060;-61
2021/07/02 03:37:35;;;;;;;16.40;6.05;;;;;;;20.42;49.68;101408.03;5055561;28;20052;-60
2021/07/02 03:40:01;;;;;;;16.13;6.47;;;;;;;20.40;49.13;101414.69;5055563;28;20033;-61
2021/07/02 03:42:27;;;;;;;15.10;7.80;;;;;;;20.42;49.99;101418.06;5055763;28;20021;-60
2021/07/02 03:44:52;;;;;;;14.18;7.45;;;;;;;20.41;49.64;101416.41;5055429;28;20051;-61
2021/07/02 03:47:18;;;;;;;27.02;7.03;;;;;;;20.41;49.69;101421.84;5055913;28;20025;-61
2021/07/02 03:49:43;;;;;;;12.77;5.97;;;;;;;20.38;49.46;101414.03;5055265;28;20035;-60
2021/07/02 03:52:08;;;;;;;15.35;7.35;;;;;;;20.38;49.42;101422.19;5055178;28;20024;-61
2021/07/02 03:54:34;;;;;;;19.88;7.45;;;;;;;20.37;50.04;101415.91;5055210;28;20112;-61
2021/07/02 03:57:11;;;;;;;15.02;6.60;;;;;;;20.35;49.64;101408.94;5056051;28;20021;-61
2021/07/02 03:59:51;;;;;;;13.45;6.68;;;;;;;20.37;49.75;101410.47;5055664;28;20028;-60
2021/07/02 04:02:17;;;;;;;18.02;6.40;;;;;;;20.37;49.73;101413.19;5054224;28;20017;-61
2021/07/02 04:04:43;;;;;;;16.15;6.97;;;;;;;20.35;49.89;101417.09;5054234;28;20032;-60
2021/07/02 04:07:10;;;;;;;13.95;6.82;;;;;;;20.36;49.36;101418.78;5055034;28;20033;-60
2021/07/02 04:09:37;;;;;;;13.48;6.38;;;;;;;20.37;49.66;101415.91;5055073;28;20033;-61
2021/07/02 04:12:03;;;;;;;21.30;8.68;;;;;;;20.40;49.77;101422.84;5053623;28;20064;-60
2021/07/02 04:14:28;;;;;;;15.00;6.35;;;;;;;20.46;49.39;101430.31;5054853;28;20060;-60
2021/07/02 04:16:54;;;;;;;13.93;6.13;;;;;;;20.48;49.62;101429.09;5053592;28;20020;-60
2021/07/02 04:19:21;;;;;;;15.07;7.28;;;;;;;20.51;49.70;101433.34;5054883;28;20385;-61
2021/07/02 04:21:47;;;;;;;20.48;6.93;;;;;;;20.54;49.56;101433.84;5053652;28;20074;-61
2021/07/02 04:24:12;;;;;;;15.07;7.13;;;;;;;20.58;50.20;101428.88;5037508;28;20025;-61
2021/07/02 04:26:38;;;;;;;20.33;6.30;;;;;;;20.63;49.80;101431.91;5054865;28;20151;-61
2021/07/02 04:29:03;;;;;;;20.65;7.65;;;;;;;20.65;49.47;101418.97;5054922;28;20052;-61
2021/07/02 04:31:29;;;;;;;15.27;6.43;;;;;;;20.75;49.52;101425.88;5054056;28;20439;-60
2021/07/02 04:33:54;;;;;;;16.20;7.97;;;;;;;20.75;49.29;101422.28;5055064;28;20469;-60
2021/07/02 04:36:19;;;;;;;17.55;6.85;;;;;;;20.75;49.17;101419.56;5052495;28;20131;-61
2021/07/02 04:38:45;;;;;;;15.32;6.22;;;;;;;20.74;49.79;101417.88;5054705;28;20397;-61
2021/07/02 04:41:10;;;;;;;16.77;7.43;;;;;;;20.74;49.23;101420.63;5054648;28;20028;-60
2021/07/02 04:43:36;;;;;;;12.85;6.45;;;;;;;20.77;49.39;101425.69;5055120;28;20025;-60
2021/07/02 04:46:02;;;;;;;16.05;6.15;;;;;;;20.77;49.37;101425.69;5037331;28;20025;-60
2021/07/02 04:48:27;;;;;;;15.80;6.30;;;;;;;20.76;49.54;101424.00;5054403;28;20480;-61
2021/07/02 04:50:52;;;;;;;16.10;6.38;;;;;;;20.79;49.22;101431.81;5053086;28;20123;-61
2021/07/02 04:53:18;;;;;;;14.75;7.03;;;;;;;20.81;49.66;101424.28;5054565;28;20025;-60
2021/07/02 04:55:44;;;;;;;16.92;7.80;;;;;;;20.82;49.42;101426.84;5054908;28;20017;-61
2021/07/02 04:58:09;;;;;;;12.93;6.47;;;;;;;20.84;50.08;101424.78;5054364;28;20029;-60
2021/07/02 05:00:35;;;;;;;24.05;7.45;;;;;;;20.83;49.69;101422.22;5054775;28;20031;-61
2021/07/02 05:03:00;;;;;;;17.55;6.60;;;;;;;20.86;49.48;101419.13;5054850;28;20017;-61
2021/07/02 05:05:26;;;;;;;15.85;7.05;;;;;;;20.86;49.48;101408.25;5053812;28;20021;-61
2021/07/02 05:07:51;;;;;;;16.13;7.68;;;;;;;20.93;49.56;101406.50;5054338;28;20028;-61
2021/07/02 05:10:17;;;;;;;15.20;6.90;;;;;;;20.97;49.26;101413.28;5054559;28;20039;-60
2021/07/02 05:12:42;;;;;;;20.25;7.18;;;;;;;21.00;49.91;101423.81;5054169;28;20081;-61
2021/07/02 05:15:09;;;;;;;16.90;6.95;;;;;;;21.06;49.22;101424.94;5054429;28;20098;-60
2021/07/02 05:17:34;;;;;;;14.80;7.13;;;;;;;21.07;49.74;101419.38;5054290;28;20021;-61
2021/07/02 05:20:00;;;;;;;16.60;7.32;;;;;;;21.14;49.55;101425.75;5054324;28;20024;-61
2021/07/02 05:22:25;;;;;;;16.92;7.15;;;;;;;21.19;49.40;101423.34;5052834;28;20159;-60
2021/07/02 05:24:51;;;;;;;16.00;6.82;;;;;;;21.26;49.80;101418.84;5054624;28;20462;-61
2021/07/02 05:27:17;;;;;;;15.50;6.60;;;;;;;21.30;49.37;101411.16;5036349;28;20036;-61
2021/07/02 05:29:42;;;;;;;18.25;7.10;;;;;;;21.41;48.78;101429.81;5053667;28;20458;-60
2021/07/02 05:32:08;;;;;;;13.60;6.65;;;;;;;21.47;48.77;101426.31;5053875;28;20039;-61
2021/07/02 05:34:34;;;;;;;17.05;5.90;;;;;;;21.53;49.57;101424.72;5053811;28;20035;-61
2021/07/02 05:37:00;;;;;;;10.65;5.65;;;;;;;21.58;49.51;101423.13;5038187;28;20056;-61
2021/07/02 05:39:25;;;;;;;16.13;6.65;;;;;;;21.61;48.66;101424.66;5053391;28;20025;-61
2021/07/02 05:41:51;;;;;;;14.75;5.97;;;;;;;21.68;49.09;101428.31;5054444;28;20037;-61
2021/07/02 05:44:16;;;;;;;12.48;6.45;;;;;;;21.79;48.68;101425.97;5036928;28;20053;-60
2021/07/02 05:46:41;;;;;;;13.95;6.53;;;;;;;21.86;49.54;101421.47;5057545;28;20434;-61
2021/07/02 05:49:07;;;;;;;13.80;6.47;;;;;;;21.95;49.69;101436.72;5056956;28;20094;-61
2021/07/02 05:51:32;;;;;;;13.68;6.32;;;;;;;22.00;49.73;101436.16;5039093;28;20033;-60
2021/07/02 05:53:58;;;;;;;13.27;6.55;;;;;;;22.02;49.12;101431.38;5057232;28;20120;-62
2021/07/02 05:56:28;;;;;;;12.07;5.25;;;;;;;22.06;49.63;101435.41;5057405;28;20059;-61
2021/07/02 05:58:54;;;;;;;11.05;6.45;;;;;;;22.08;48.66;101438.81;5056725;28;20025;-61
2021/07/02 06:01:20;;;;;;;15.57;6.20;;;;;;;22.12;49.16;101442.00;5039178;28;20079;-60
2021/07/02 06:03:45;;;;;;;15.68;5.85;;;;;;;22.13;49.01;101444.56;5056687;28;20436;-61
2021/07/02 06:06:10;;;;;;;13.18;6.38;;;;;;;22.21;49.52;101438.97;5056606;28;20119;-61
2021/07/02 06:08:36;;;;;;;9.93;5.10;;;;;;;22.24;49.14;101438.59;5056814;28;20028;-62
2021/07/02 06:11:01;;;;;;;12.30;5.97;;;;;;;22.31;48.45;101450.44;5056952;28;20032;-61
2021/07/02 06:13:27;;;;;;;16.70;7.00;;;;;;;22.38;48.80;101443.19;5056670;28;20035;-61
2021/07/02 06:15:53;;;;;;;11.30;5.80;;;;;;;22.40;48.64;101438.38;5039252;28;20017;-61
2021/07/02 06:18:18;;;;;;;12.25;6.70;;;;;;;22.48;48.39;101443.72;5056728;28;20531;-62
2021/07/02 06:20:43;;;;;;;19.50;6.47;;;;;;;22.56;48.66;101448.22;5056909;28;20029;-62
2021/07/02 06:23:09;;;;;;;12.50;6.30;;;;;;;22.65;48.25;101449.00;5056635;28;20462;-61
2021/07/02 06:25:34;;;;;;;11.65;5.93;;;;;;;22.73;48.12;101435.22;5057264;28;20467;-61
2021/07/02 06:27:59;;;;;;;15.65;5.97;;;;;;;22.83;48.95;101433.03;5039464;28;20033;-62
2021/07/02 06:30:25;;;;;;;16.83;6.20;;;;;;;22.96;48.56;101438.63;5056840;28;20112;-62
2021/07/02 06:32:50;;;;;;;13.95;6.53;;;;;;;23.11;48.75;101444.88;5056381;28;20071;-61
2021/07/02 06:35:16;;;;;;;14.10;7.07;;;;;;;23.19;47.95;101442.00;5056887;28;20096;-62
2021/07/02 06:37:48;;;;;;;15.52;6.50;;;;;;;23.32;48.52;101441.25;5052027;28;20061;-61
2021/07/02 06:40:14;;;;;;;11.35;5.95;;;;;;;23.57;48.18;101445.28;5056183;28;20043;-61
2021/07/02 06:42:39;;;;;;;15.60;6.50;;;;;;;23.75;47.79;101443.75;5056325;28;20095;-62
2021/07/02 06:45:05;;;;;;;10.23;6.13;;;;;;;23.91;48.02;101441.75;5056611;28;20057;-62
2021/07/02 06:47:31;;;;;;;13.40;6.03;;;;;;;24.01;47.67;101447.72;5056489;28;20039;-61
2021/07/02 06:49:56;;;;;;;11.15;5.57;;;;;;;24.11;46.90;101442.75;5056215;28;20108;-62
2021/07/02 06:52:21;;;;;;;14.95;6.40;;;;;;;24.19;47.81;101448.91;5056502;28;20113;-62
2021/07/02 06:54:47;;;;;;;16.48;6.63;;;;;;;24.27;47.38;101453.34;5055979;28;20382;-62
2021/07/02 06:57:14;;;;;;;10.40;5.50;;;;;;;24.38;46.80;101449.19;5056629;28;20104;-61
2021/07/02 06:59:40;;;;;;;10.80;5.93;;;;;;;24.81;46.41;101448.75;5055903;28;20025;-62
2021/07/02 07:02:08;;;;;;;17.60;6.43;;;;;;;25.02;46.06;101455.09;5056009;28;20079;-62
2021/07/02 07:04:37;;;;;;;8.93;5.22;;;;;;;25.15;45.62;101450.50;5054957;28;20028;-62
2021/07/02 07:07:03;;;;;;;14.55;6.05;;;;;;;25.25;46.12;101455.56;5056342;28;20469;-61
2021/07/02 07:09:30;;;;;;;13.20;5.43;;;;;;;25.36;45.39;101460.41;5056361;28;20120;-62
2021/07/02 07:11:56;;;;;;;11.88;5.40;;;;;;;25.53;44.94;101456.22;5056436;28;20041;-62
2021/07/02 07:14:21;;;;;;;10.98;5.43;;;;;;;25.73;45.03;101457.06;5038682;28;20040;-62
2021/07/02 07:16:47;;;;;;;13.85;6.00;;;;;;;25.93;44.42;101457.03;5038316;28;20035;-62
2021/07/02 07:19:12;;;;;;;10.07;5.22;;;;;;;26.12;44.70;101463.53;5038337;28;20429;-60
2021/07/02 07:21:37;;;;;;;9.07;5.07;;;;;;;26.28;44.75;101461.19;5038128;28;20029;-60
2021/07/02 07:24:03;;;;;;;12.77;5.53;;;;;;;26.36;44.48;101465.59;5055555;28;20025;-60
2021/07/02 07:26:29;;;;;;;10.50;4.70;;;;;;;26.42;44.13;101462.81;5055503;28;20123;-60
2021/07/02 07:28:54;;;;;;;11.27;4.60;;;;;;;26.47;44.30;101454.78;5055434;28;20083;-60
2021/07/02 07:31:19;;;;;;;9.40;4.75;;;;;;;26.74;43.67;101463.75;5055649;28;20041;-60
2021/07/02 07:33:47;;;;;;;20.23;5.22;;;;;;;26.84;43.27;101460.53;5055470;28;20036;-59
2021/07/02 07:36:15;;;;;;;10.93;5.50;;;;;;;27.04;43.87;101462.13;5055716;28;20028;-60
2021/07/02 07:38:44;;;;;;;10.88;5.35;;;;;;;27.31;43.71;101461.91;5054757;28;20064;-60
2021/07/02 07:41:10;;;;;;;10.93;5.15;;;;;;;27.48;43.06;101463.94;5055746;28;20036;-60
2021/07/02 07:43:35;;;;;;;15.77;4.82;;;;;;;27.74;42.11;101462.84;5037725;28;20025;-60
2021/07/02 07:46:02;;;;;;;6.93;4.20;;;;;;;27.78;42.46;101460.50;5054688;28;20029;-60
2021/07/02 07:48:27;;;;;;;12.40;5.68;;;;;;;27.69;42.79;101457.19;5054804;28;20389;-60
2021/07/02 07:51:01;;;;;;;9.57;4.60;;;;;;;27.68;41.89;101455.50;5054948;28;20025;-60
2021/07/02 07:53:26;;;;;;;10.32;4.78;;;;;;;28.12;41.12;101469.03;5055369;28;20378;-60
2021/07/02 07:55:51;;;;;;;13.50;4.72;;;;;;;28.17;42.04;101465.59;5055559;28;20036;-60
2021/07/02 07:58:17;;;;;;;12.27;6.60;;;;;;;27.98;41.92;101463.88;5055057;28;20487;-60
2021/07/02 08:00:42;;;;;;;11.60;4.57;;;;;;;28.26;40.51;101473.34;5037105;28;20033;-61
2021/07/02 08:03:07;;;;;;;13.18;4.57;;;;;;;28.68;40.03;101459.69;5054707;28;20154;-61
2021/07/02 08:05:33;;;;;;;13.32;5.68;;;;;;;28.65;40.77;101460.16;5054710;28;20024;-61
2021/07/02 08:07:58;;;;;;;10.90;4.93;;;;;;;28.71;40.24;101464.75;5054645;28;20052;-60
2021/07/02 08:10:26;;;;;;;7.82;4.45;;;;;;;29.03;39.56;101466.22;5054419;28;20075;-60
2021/07/02 08:12:52;;;;;;;8.00;3.97;;;;;;;29.51;39.74;101462.50;5054526;28;20044;-60
2021/07/02 08:15:18;;;;;;;10.80;4.88;;;;;;;29.81;39.30;101452.22;5054780;28;20025;-60
2021/07/02 08:17:43;;;;;;;13.48;5.10;;;;;;;30.13;38.89;101459.03;5036445;28;20032;-60
2021/07/02 08:20:10;;;;;;;8.05;4.95;;;;;;;30.40;38.72;101464.91;5036678;28;20033;-60
2021/07/02 08:22:36;;;;;;;13.20;5.40;;;;;;;30.32;38.81;101462.50;5036689;28;20021;-60
2021/07/02 08:25:02;;;;;;;11.40;5.18;;;;;;;30.54;38.45;101463.56;5036420;28;20452;-61
2021/07/02 08:27:28;;;;;;;8.40;4.85;;;;;;;30.73;38.23;101461.44;5054019;28;20025;-60
2021/07/02 08:29:54;;;;;;;10.60;5.70;;;;;;;30.43;38.28;101454.19;5054230;28;20029;-61
2021/07/02 08:32:19;;;;;;;9.77;4.90;;;;;;;30.63;38.04;101458.47;5036445;28;20029;-60
2021/07/02 08:34:46;;;;;;;10.70;5.00;;;;;;;30.88;37.59;101456.19;5054412;28;20033;-61
2021/07/02 08:37:11;;;;;;;9.38;4.90;;;;;;;31.22;37.20;101449.66;5035856;28;20072;-60
2021/07/02 08:39:36;;;;;;;7.78;5.28;;;;;;;31.29;36.47;101447.59;5054133;28;20450;-60
2021/07/02 08:42:03;;;;;;;8.32;5.03;;;;;;;30.84;37.14;101463.31;5036269;28;20033;-60
2021/07/02 08:44:29;;;;;;;12.27;4.95;;;;;;;30.67;37.40;101462.41;5036245;28;20109;-60
2021/07/02 08:46:54;;;;;;;9.30;4.95;;;;;;;30.57;37.41;101466.66;5054252;28;20108;-60
2021/07/02 08:49:20;;;;;;;11.82;5.47;;;;;;;30.41;37.90;101472.97;5053598;28;20036;-60
2021/07/02 08:51:46;;;;;;;10.43;4.90;;;;;;;30.24;37.55;101469.22;5054336;28;20096;-60
2021/07/02 08:54:14;;;;;;;13.38;5.18;;;;;;;30.11;37.64;101472.25;5035869;28;20507;-60
2021/07/02 08:56:56;;;;;;;9.25;5.65;;;;;;;30.05;37.99;101473.22;5053778;28;20474;-60
2021/07/02 08:59:30;;;;;;;9.65;5.57;;;;;;;30.21;37.63;101477.19;5053812;28;20492;-60
2021/07/02 09:01:56;;;;;;;11.02;5.63;;;;;;;30.07;37.67;101482.09;5053538;28;20020;-59
2021/07/02 09:04:30;;;;;;;13.77;6.65;;;;;;;29.93;37.19;101480.66;5053819;28;20497;-60
2021/07/02 09:07:07;;;;;;;11.30;5.78;;;;;;;29.77;37.84;101486.88;5035795;28;20035;-61
2021/07/02 09:09:57;;;;;;;11.00;5.50;;;;;;;29.84;37.67;101480.22;5054234;28;20514;-60
2021/07/02 09:12:24;;;;;;;11.15;5.05;;;;;;;30.19;37.19;101471.88;5036627;28;20086;-59
2021/07/02 09:14:55;;;;;;;7.60;4.88;;;;;;;30.09;37.26;101474.44;5054226;28;20096;-60
2021/07/02 09:17:23;;;;;;;10.43;5.35;;;;;;;30.32;36.92;101479.91;5053748;28;20025;-60
2021/07/02 09:20:01;;;;;;;11.23;5.10;;;;;;;30.44;36.79;101472.47;5054937;28;20103;-59
2021/07/02 09:22:26;;;;;;;7.95;4.35;;;;;;;30.51;36.96;101475.13;5040259;28;20028;-60
2021/07/02 09:24:52;;;;;;;10.05;4.90;;;;;;;30.49;36.82;101467.03;5057745;28;20386;-61
2021/07/02 09:27:28;;;;;;;9.98;5.20;;;;;;;31.22;35.70;101469.03;5039445;28;20068;-60
2021/07/02 09:30:01;;;;;;;12.07;5.07;;;;;;;31.48;34.84;101468.44;5057653;28;20037;-61
2021/07/02 09:32:31;;;;;;;12.68;5.38;;;;;;;31.52;35.35;101464.06;5057224;28;20025;-60
2021/07/02 09:34:59;;;;;;;9.23;5.03;;;;;;;31.25;35.59;101465.78;5057473;28;20035;-59
2021/07/02 09:40:23;;;;;;;12.80;5.47;;;;;;;32.59;34.77;101475.66;5057573;28;20035;-60
2021/07/02 09:43:12;;;;;;;11.43;5.65;;;;;;;32.40;34.42;101477.03;5057647;28;20021;-60
2021/07/02 09:45:48;;;;;;;12.65;5.80;;;;;;;32.20;34.70;101468.44;5057327;28;20035;-60
2021/07/02 09:48:16;;;;;;;8.77;4.65;;;;;;;32.29;34.29;101475.22;5057464;28;20022;-60
2021/07/02 09:50:43;;;;;;;10.68;5.20;;;;;;;32.22;35.09;101474.56;5057168;28;20036;-60
2021/07/02 09:53:09;;;;;;;11.25;5.40;;;;;;;32.20;35.32;101477.59;5056837;28;20077;-60
2021/07/02 09:55:43;;;;;;;8.73;5.07;;;;;;;32.33;34.79;101470.81;5057117;28;20028;-60
2021/07/02 09:58:19;;;;;;;11.32;6.25;;;;;;;32.29;34.85;101475.22;5057127;28;20385;-60
2021/07/02 10:00:52;;;;;;;10.50;5.72;;;;;;;32.87;34.59;101470.97;5057056;28;20509;-60
2021/07/02 10:03:22;;;;;;;10.02;4.97;;;;;;;33.38;32.88;101462.91;5022290;28;20025;-61
2021/07/02 10:05:52;;;;;;;9.30;4.85;;;;;;;33.58;32.60;101478.94;5039123;28;20029;-61
2021/07/02 10:08:19;;;;;;;10.02;4.70;;;;;;;33.47;33.54;101466.03;5056806;28;20024;-60
2021/07/02 10:10:44;;;;;;;7.72;4.60;;;;;;;33.36;32.95;101487.31;5038961;28;20386;-61
2021/07/02 10:13:10;;;;;;;8.07;4.45;;;;;;;33.46;33.02;101481.03;5056746;28;20040;-60
2021/07/02 10:15:35;;;;;;;7.03;3.90;;;;;;;33.27;32.81;101486.16;5056782;28;20028;-60
2021/07/02 10:18:01;;;;;;;7.72;4.05;;;;;;;33.31;33.42;101483.66;5038649;28;20025;-60
2021/07/02 10:20:30;;;;;;;7.53;3.80;;;;;;;33.01;32.88;101489.72;5056366;28;20029;-60
2021/07/02 10:22:58;;;;;;;5.78;3.22;;;;;;;32.69;33.29;101491.59;5056498;28;20524;-61
2021/07/02 10:25:26;;;;;;;7.35;3.17;;;;;;;32.33;33.33;101490.25;5056521;28;20028;-61
2021/07/02 10:27:52;;;;;;;6.85;3.20;;;;;;;32.01;33.95;101495.63;5056766;28;20483;-60
2021/07/02 10:30:18;;;;;;;5.47;3.88;;;;;;;31.80;33.97;101492.78;5055838;28;20527;-61
2021/07/02 10:32:44;;;;;;;4.60;3.08;;;;;;;31.54;33.91;101486.81;5056550;28;20021;-61
2021/07/02 10:35:13;;;;;;;9.00;3.20;;;;;;;31.41;34.15;101500.13;5038649;28;20024;-61
2021/07/02 10:37:41;;;;;;;6.28;3.17;;;;;;;31.33;34.20;101501.34;5038190;28;20482;-60
2021/07/02 10:40:30;;;;;;;7.45;3.20;;;;;;;31.34;34.13;101503.06;5021973;28;20120;-60
2021/07/02 10:43:11;;;;;;;5.75;3.47;;;;;;;31.31;34.61;101495.25;5049110;28;20029;-60
2021/07/02 10:45:39;;;;;;;7.57;3.80;;;;;;;31.27;34.44;101505.13;5056112;28;20187;-61
2021/07/02 10:48:05;;;;;;;10.63;6.00;;;;;;;31.25;34.70;101485.16;5038194;28;20059;-61
2021/07/02 10:50:36;;;;;;;7.05;4.32;;;;;;;31.34;34.41;101489.22;5056444;28;20021;-60
2021/07/02 10:53:27;;;;;;;4.72;3.40;;;;;;;31.31;34.81;101497.16;5055026;28;20078;-61
2021/07/02 10:55:53;;;;;;;6.07;3.65;;;;;;;31.32;34.68;101502.47;5056040;28;20029;-60
2021/07/02 10:58:20;;;;;;;5.88;3.55;;;;;;;31.29;34.63;101500.19;5038448;28;20057;-59
2021/07/02 11:01:06;;;;;;;5.25;3.25;;;;;;;31.38;34.49;101495.91;5056338;28;20111;-60
2021/07/02 11:03:32;;;;;;;4.15;3.28;;;;;;;31.60;34.08;101507.97;5055798;28;20553;-60
2021/07/02 11:05:57;;;;;;;6.93;3.10;;;;;;;31.87;33.81;101505.34;5037859;28;20060;-60
2021/07/02 11:08:45;;;;;;;7.53;3.63;;;;;;;32.09;34.02;101502.66;5038602;28;20100;-60
2021/07/02 11:11:10;;;;;;;8.60;3.45;;;;;;;32.10;33.79;101498.81;5055928;28;20470;-60
2021/07/02 11:14:08;;;;;;;5.72;3.08;;;;;;;32.10;33.82;101504.34;5055757;28;20025;-60
2021/07/02 11:16:33;;;;;;;10.70;3.42;;;;;;;32.11;34.59;101508.78;5055279;28;20029;-61
2021/07/02 11:19:22;;;;;;;6.95;3.67;;;;;;;32.26;33.56;101497.94;5055580;28;20029;-61
2021/07/02 11:22:27;;;;;;;6.70;3.70;;;;;;;32.30;34.17;101499.09;5055321;28;20020;-60